sensor_id;sensor_type;location;lat;lon;timestamp;P1;durP1;ratioP1;P2;durP2;ratioP2
59846;SDS011;45728;48.788;2.302;2023-04-12T00:02:00;15.68;;;5.00;;
59846;SDS011;45728;48.788;2.302;2023-04-12T00:04:26;14.93;;;4.43;;
59846;SDS011;45728;48.788;2.302;2023-04-12T00:06:53;13.40;;;4.93;;
59846;SDS011;45728;48.788;2.302;2023-04-12T00:09:20;22.23;;;5.10;;
59846;SDS011;45728;48.788;2.302;2023-04-12T00:11:46;17.88;;;6.65;;
59846;SDS011;45728;48.788;2.302;2023-04-12T00:14:12;17.95;;;5.65;;
59846;SDS011;45728;48.788;2.302;2023-04-12T00:16:38;15.18;;;5.07;;
59846;SDS011;45728;48.788;2.302;2023-04-12T00:19:04;10.85;;;4.45;;
59846;SDS011;45728;48.788;2.302;2023-04-12T00:21:31;17.30;;;5.60;;
59846;SDS011;45728;48.788;2.302;2023-04-12T00:23:57;17.17;;;6.07;;
59846;SDS011;45728;48.788;2.302;2023-04-12T00:26:23;16.83;;;6.80;;
59846;SDS011;45728;48.788;2.302;2023-04-12T00:28:52;20.50;;;8.40;;
59846;SDS011;45728;48.788;2.302;2023-04-12T00:31:18;18.90;;;8.07;;
59846;SDS011;45728;48.788;2.302;2023-04-12T00:33:44;20.45;;;8.23;;
59846;SDS011;45728;48.788;2.302;2023-04-12T00:36:10;18.17;;;8.38;;
59846;SDS011;45728;48.788;2.302;2023-04-12T00:38:36;19.25;;;8.23;;
59846;SDS011;45728;48.788;2.302;2023-04-12T00:41:02;22.38;;;9.40;;
59846;SDS011;45728;48.788;2.302;2023-04-12T00:43:28;17.30;;;8.05;;
59846;SDS011;45728;48.788;2.302;2023-04-12T00:45:55;23.80;;;10.23;;
59846;SDS011;45728;48.788;2.302;2023-04-12T00:48:23;26.80;;;10.95;;
59846;SDS011;45728;48.788;2.302;2023-04-12T00:50:51;23.48;;;8.32;;
59846;SDS011;45728;48.788;2.302;2023-04-12T00:53:20;16.70;;;7.15;;
59846;SDS011;45728;48.788;2.302;2023-04-12T00:55:47;18.50;;;7.13;;
59846;SDS011;45728;48.788;2.302;2023-04-12T00:58:14;21.30;;;7.20;;
59846;SDS011;45728;48.788;2.302;2023-04-12T01:00:41;19.63;;;6.65;;
59846;SDS011;45728;48.788;2.302;2023-04-12T01:03:17;16.73;;;5.32;;
59846;SDS011;45728;48.788;2.302;2023-04-12T01:11:25;18.02;;;4.95;;
59846;SDS011;45728;48.788;2.302;2023-04-12T01:14:04;13.90;;;5.00;;
59846;SDS011;45728;48.788;2.302;2023-04-12T01:19:18;18.13;;;5.18;;
59846;SDS011;45728;48.788;2.302;2023-04-12T01:22:01;13.45;;;5.43;;
59846;SDS011;45728;48.788;2.302;2023-04-12T01:27:40;16.95;;;5.20;;
59846;SDS011;45728;48.788;2.302;2023-04-12T01:30:13;16.95;;;5.50;;
59846;SDS011;45728;48.788;2.302;2023-04-12T01:32:42;15.30;;;5.00;;
59846;SDS011;45728;48.788;2.302;2023-04-12T01:35:12;16.38;;;4.95;;
59846;SDS011;45728;48.788;2.302;2023-04-12T01:37:39;15.57;;;5.13;;
59846;SDS011;45728;48.788;2.302;2023-04-12T01:40:06;16.77;;;5.22;;
59846;SDS011;45728;48.788;2.302;2023-04-12T01:42:33;15.30;;;4.60;;
59846;SDS011;45728;48.788;2.302;2023-04-12T01:45:00;16.60;;;5.32;;
59846;SDS011;45728;48.788;2.302;2023-04-12T01:47:27;14.00;;;4.63;;
59846;SDS011;45728;48.788;2.302;2023-04-12T01:49:55;18.15;;;4.82;;
59846;SDS011;45728;48.788;2.302;2023-04-12T01:52:33;13.52;;;5.00;;
59846;SDS011;45728;48.788;2.302;2023-04-12T01:55:05;11.98;;;4.72;;
59846;SDS011;45728;48.788;2.302;2023-04-12T01:57:32;15.25;;;4.30;;
59846;SDS011;45728;48.788;2.302;2023-04-12T01:59:59;13.40;;;5.00;;
59846;SDS011;45728;48.788;2.302;2023-04-12T02:02:30;14.45;;;4.90;;
59846;SDS011;45728;48.788;2.302;2023-04-12T02:04:57;14.48;;;5.18;;
59846;SDS011;45728;48.788;2.302;2023-04-12T02:07:24;13.00;;;5.03;;
59846;SDS011;45728;48.788;2.302;2023-04-12T02:09:51;15.27;;;4.68;;
59846;SDS011;45728;48.788;2.302;2023-04-12T02:12:17;13.88;;;4.80;;
59846;SDS011;45728;48.788;2.302;2023-04-12T02:14:43;14.27;;;4.93;;
59846;SDS011;45728;48.788;2.302;2023-04-12T02:17:09;16.00;;;4.68;;
59846;SDS011;45728;48.788;2.302;2023-04-12T02:19:37;13.35;;;5.32;;
59846;SDS011;45728;48.788;2.302;2023-04-12T02:22:03;14.73;;;4.53;;
59846;SDS011;45728;48.788;2.302;2023-04-12T02:24:30;15.63;;;5.22;;
59846;SDS011;45728;48.788;2.302;2023-04-12T02:26:59;15.27;;;5.15;;
59846;SDS011;45728;48.788;2.302;2023-04-12T02:29:25;13.30;;;4.60;;
59846;SDS011;45728;48.788;2.302;2023-04-12T02:31:52;14.32;;;4.93;;
59846;SDS011;45728;48.788;2.302;2023-04-12T02:34:18;13.45;;;4.88;;
59846;SDS011;45728;48.788;2.302;2023-04-12T02:36:46;11.82;;;4.80;;
59846;SDS011;45728;48.788;2.302;2023-04-12T02:39:13;12.23;;;4.45;;
59846;SDS011;45728;48.788;2.302;2023-04-12T02:44:09;10.88;;;3.72;;
59846;SDS011;45728;48.788;2.302;2023-04-12T02:46:35;11.00;;;4.28;;
59846;SDS011;45728;48.788;2.302;2023-04-12T02:49:01;9.70;;;4.00;;
59846;SDS011;45728;48.788;2.302;2023-04-12T02:51:27;10.77;;;4.03;;
59846;SDS011;45728;48.788;2.302;2023-04-12T02:53:54;11.38;;;4.22;;
59846;SDS011;45728;48.788;2.302;2023-04-12T02:56:20;11.80;;;3.78;;
59846;SDS011;45728;48.788;2.302;2023-04-12T02:58:46;9.85;;;3.83;;
59846;SDS011;45728;48.788;2.302;2023-04-12T03:01:12;11.00;;;4.07;;
59846;SDS011;45728;48.788;2.302;2023-04-12T03:03:38;11.27;;;4.20;;
59846;SDS011;45728;48.788;2.302;2023-04-12T03:06:05;11.52;;;3.80;;
59846;SDS011;45728;48.788;2.302;2023-04-12T03:08:34;9.40;;;4.10;;
59846;SDS011;45728;48.788;2.302;2023-04-12T03:11:00;8.93;;;3.38;;
59846;SDS011;45728;48.788;2.302;2023-04-12T03:13:26;10.85;;;3.78;;
59846;SDS011;45728;48.788;2.302;2023-04-12T03:15:56;11.25;;;3.47;;
59846;SDS011;45728;48.788;2.302;2023-04-12T03:18:23;9.00;;;3.47;;
59846;SDS011;45728;48.788;2.302;2023-04-12T03:20:50;10.13;;;3.92;;
59846;SDS011;45728;48.788;2.302;2023-04-12T03:23:19;9.33;;;3.13;;
59846;SDS011;45728;48.788;2.302;2023-04-12T03:25:45;9.20;;;3.65;;
59846;SDS011;45728;48.788;2.302;2023-04-12T03:28:11;8.65;;;3.63;;
59846;SDS011;45728;48.788;2.302;2023-04-12T03:30:37;10.43;;;3.42;;
59846;SDS011;45728;48.788;2.302;2023-04-12T03:33:03;8.07;;;3.00;;
59846;SDS011;45728;48.788;2.302;2023-04-12T03:35:29;5.55;;;3.05;;
59846;SDS011;45728;48.788;2.302;2023-04-12T03:37:56;6.10;;;2.70;;
59846;SDS011;45728;48.788;2.302;2023-04-12T03:40:22;8.23;;;2.90;;
59846;SDS011;45728;48.788;2.302;2023-04-12T03:42:48;7.45;;;2.72;;
59846;SDS011;45728;48.788;2.302;2023-04-12T03:45:14;6.10;;;2.30;;
59846;SDS011;45728;48.788;2.302;2023-04-12T03:47:40;3.70;;;1.73;;
59846;SDS011;45728;48.788;2.302;2023-04-12T03:50:06;2.13;;;1.08;;
59846;SDS011;45728;48.788;2.302;2023-04-12T03:52:32;2.03;;;0.90;;
59846;SDS011;45728;48.788;2.302;2023-04-12T03:54:58;1.75;;;0.80;;
59846;SDS011;45728;48.788;2.302;2023-04-12T03:57:25;1.02;;;0.50;;
59846;SDS011;45728;48.788;2.302;2023-04-12T03:59:51;1.92;;;0.60;;
59846;SDS011;45728;48.788;2.302;2023-04-12T04:02:17;1.08;;;0.60;;
59846;SDS011;45728;48.788;2.302;2023-04-12T04:04:43;1.48;;;0.50;;
59846;SDS011;45728;48.788;2.302;2023-04-12T04:07:10;0.63;;;0.38;;
59846;SDS011;45728;48.788;2.302;2023-04-12T04:09:36;0.43;;;0.38;;
59846;SDS011;45728;48.788;2.302;2023-04-12T04:12:02;1.02;;;0.28;;
59846;SDS011;45728;48.788;2.302;2023-04-12T04:14:28;1.88;;;0.30;;
59846;SDS011;45728;48.788;2.302;2023-04-12T04:16:54;0.75;;;0.40;;
59846;SDS011;45728;48.788;2.302;2023-04-12T04:19:20;1.00;;;0.40;;
59846;SDS011;45728;48.788;2.302;2023-04-12T04:21:46;1.75;;;0.30;;
59846;SDS011;45728;48.788;2.302;2023-04-12T04:24:14;0.60;;;0.40;;
59846;SDS011;45728;48.788;2.302;2023-04-12T04:26:43;0.67;;;0.20;;
59846;SDS011;45728;48.788;2.302;2023-04-12T04:29:09;0.40;;;0.30;;
59846;SDS011;45728;48.788;2.302;2023-04-12T04:31:36;0.82;;;0.40;;
59846;SDS011;45728;48.788;2.302;2023-04-12T04:34:03;1.85;;;0.40;;
59846;SDS011;45728;48.788;2.302;2023-04-12T04:36:33;0.43;;;0.30;;
59846;SDS011;45728;48.788;2.302;2023-04-12T04:39:01;1.38;;;0.30;;
59846;SDS011;45728;48.788;2.302;2023-04-12T04:41:29;0.20;;;0.20;;
59846;SDS011;45728;48.788;2.302;2023-04-12T04:43:59;0.55;;;0.30;;
59846;SDS011;45728;48.788;2.302;2023-04-12T04:46:25;0.82;;;0.50;;
59846;SDS011;45728;48.788;2.302;2023-04-12T04:48:54;0.50;;;0.35;;
59846;SDS011;45728;48.788;2.302;2023-04-12T04:51:21;0.32;;;0.30;;
59846;SDS011;45728;48.788;2.302;2023-04-12T04:53:47;3.83;;;0.50;;
59846;SDS011;45728;48.788;2.302;2023-04-12T04:56:13;1.95;;;0.30;;
59846;SDS011;45728;48.788;2.302;2023-04-12T04:58:39;0.88;;;0.38;;
59846;SDS011;45728;48.788;2.302;2023-04-12T05:01:05;0.50;;;0.40;;
59846;SDS011;45728;48.788;2.302;2023-04-12T05:03:31;1.13;;;0.45;;
59846;SDS011;45728;48.788;2.302;2023-04-12T05:06:01;3.22;;;0.85;;
59846;SDS011;45728;48.788;2.302;2023-04-12T05:08:27;3.15;;;0.50;;
59846;SDS011;45728;48.788;2.302;2023-04-12T05:10:54;0.75;;;0.55;;
59846;SDS011;45728;48.788;2.302;2023-04-12T05:13:21;1.65;;;0.60;;
59846;SDS011;45728;48.788;2.302;2023-04-12T05:15:47;1.63;;;0.70;;
59846;SDS011;45728;48.788;2.302;2023-04-12T05:18:14;2.15;;;0.85;;
59846;SDS011;45728;48.788;2.302;2023-04-12T05:20:40;0.90;;;0.70;;
59846;SDS011;45728;48.788;2.302;2023-04-12T05:23:06;1.10;;;0.60;;
59846;SDS011;45728;48.788;2.302;2023-04-12T05:25:32;1.05;;;0.50;;
59846;SDS011;45728;48.788;2.302;2023-04-12T05:27:59;1.35;;;0.80;;
59846;SDS011;45728;48.788;2.302;2023-04-12T05:30:25;2.00;;;1.08;;
59846;SDS011;45728;48.788;2.302;2023-04-12T05:32:51;1.65;;;1.20;;
59846;SDS011;45728;48.788;2.302;2023-04-12T05:35:17;5.28;;;1.65;;
59846;SDS011;45728;48.788;2.302;2023-04-12T05:37:43;1.45;;;0.95;;
59846;SDS011;45728;48.788;2.302;2023-04-12T05:40:09;1.80;;;0.98;;
59846;SDS011;45728;48.788;2.302;2023-04-12T05:42:36;0.95;;;0.80;;
59846;SDS011;45728;48.788;2.302;2023-04-12T05:45:02;4.03;;;2.40;;
59846;SDS011;45728;48.788;2.302;2023-04-12T05:47:29;4.13;;;3.78;;
59846;SDS011;45728;48.788;2.302;2023-04-12T05:49:55;4.45;;;4.07;;
59846;SDS011;45728;48.788;2.302;2023-04-12T05:52:21;5.35;;;4.85;;
59846;SDS011;45728;48.788;2.302;2023-04-12T05:54:47;5.70;;;4.43;;
59846;SDS011;45728;48.788;2.302;2023-04-12T05:57:13;6.47;;;2.80;;
59846;SDS011;45728;48.788;2.302;2023-04-12T05:59:40;4.88;;;3.05;;
59846;SDS011;45728;48.788;2.302;2023-04-12T06:02:06;5.97;;;2.60;;
59846;SDS011;45728;48.788;2.302;2023-04-12T06:04:33;4.45;;;2.50;;
59846;SDS011;45728;48.788;2.302;2023-04-12T06:06:59;6.57;;;3.10;;
59846;SDS011;45728;48.788;2.302;2023-04-12T06:09:26;9.88;;;3.10;;
59846;SDS011;45728;48.788;2.302;2023-04-12T06:11:52;4.20;;;2.88;;
59846;SDS011;45728;48.788;2.302;2023-04-12T06:14:18;5.25;;;3.55;;
59846;SDS011;45728;48.788;2.302;2023-04-12T06:16:44;3.70;;;3.28;;
59846;SDS011;45728;48.788;2.302;2023-04-12T06:19:10;5.05;;;3.28;;
59846;SDS011;45728;48.788;2.302;2023-04-12T06:21:36;7.38;;;3.80;;
59846;SDS011;45728;48.788;2.302;2023-04-12T06:24:02;3.35;;;3.05;;
59846;SDS011;45728;48.788;2.302;2023-04-12T06:26:29;6.00;;;3.10;;
59846;SDS011;45728;48.788;2.302;2023-04-12T06:28:55;4.25;;;3.85;;
59846;SDS011;45728;48.788;2.302;2023-04-12T06:31:21;4.10;;;3.70;;
59846;SDS011;45728;48.788;2.302;2023-04-12T06:33:47;4.78;;;3.80;;
59846;SDS011;45728;48.788;2.302;2023-04-12T06:36:14;3.83;;;3.42;;
59846;SDS011;45728;48.788;2.302;2023-04-12T06:38:41;4.57;;;3.30;;
59846;SDS011;45728;48.788;2.302;2023-04-12T06:41:07;4.85;;;3.53;;
59846;SDS011;45728;48.788;2.302;2023-04-12T06:43:33;6.72;;;2.78;;
59846;SDS011;45728;48.788;2.302;2023-04-12T06:45:59;4.82;;;2.70;;
59846;SDS011;45728;48.788;2.302;2023-04-12T06:48:27;5.60;;;2.80;;
59846;SDS011;45728;48.788;2.302;2023-04-12T06:50:54;4.35;;;2.80;;
59846;SDS011;45728;48.788;2.302;2023-04-12T06:53:20;3.40;;;1.90;;
59846;SDS011;45728;48.788;2.302;2023-04-12T06:55:47;3.28;;;2.03;;
59846;SDS011;45728;48.788;2.302;2023-04-12T06:58:13;4.43;;;2.30;;
59846;SDS011;45728;48.788;2.302;2023-04-12T07:00:39;6.63;;;2.28;;
59846;SDS011;45728;48.788;2.302;2023-04-12T07:03:05;2.97;;;1.60;;
59846;SDS011;45728;48.788;2.302;2023-04-12T07:05:33;4.07;;;1.67;;
59846;SDS011;45728;48.788;2.302;2023-04-12T07:08:03;4.95;;;1.70;;
59846;SDS011;45728;48.788;2.302;2023-04-12T07:10:29;6.30;;;1.67;;
59846;SDS011;45728;48.788;2.302;2023-04-12T07:12:55;7.65;;;1.50;;
59846;SDS011;45728;48.788;2.302;2023-04-12T07:15:23;5.88;;;1.95;;
59846;SDS011;45728;48.788;2.302;2023-04-12T07:17:49;5.93;;;1.55;;
59846;SDS011;45728;48.788;2.302;2023-04-12T07:20:16;7.65;;;1.85;;
59846;SDS011;45728;48.788;2.302;2023-04-12T07:22:42;6.55;;;1.88;;
59846;SDS011;45728;48.788;2.302;2023-04-12T07:25:08;6.03;;;1.80;;
59846;SDS011;45728;48.788;2.302;2023-04-12T07:27:34;4.28;;;1.30;;
59846;SDS011;45728;48.788;2.302;2023-04-12T07:30:01;4.75;;;1.52;;
59846;SDS011;45728;48.788;2.302;2023-04-12T07:32:28;5.95;;;1.73;;
59846;SDS011;45728;48.788;2.302;2023-04-12T07:34:54;4.07;;;1.65;;
59846;SDS011;45728;48.788;2.302;2023-04-12T07:37:20;5.13;;;1.50;;
59846;SDS011;45728;48.788;2.302;2023-04-12T07:39:46;7.60;;;2.00;;
59846;SDS011;45728;48.788;2.302;2023-04-12T07:42:12;5.78;;;1.38;;
59846;SDS011;45728;48.788;2.302;2023-04-12T07:44:38;7.05;;;2.13;;
59846;SDS011;45728;48.788;2.302;2023-04-12T07:47:04;3.40;;;1.55;;
59846;SDS011;45728;48.788;2.302;2023-04-12T07:49:50;9.20;;;2.25;;
59846;SDS011;45728;48.788;2.302;2023-04-12T07:52:16;4.55;;;1.75;;
59846;SDS011;45728;48.788;2.302;2023-04-12T07:54:42;4.57;;;1.85;;
59846;SDS011;45728;48.788;2.302;2023-04-12T07:57:08;6.85;;;1.70;;
59846;SDS011;45728;48.788;2.302;2023-04-12T07:59:34;4.63;;;1.48;;
59846;SDS011;45728;48.788;2.302;2023-04-12T08:02:01;3.97;;;1.45;;
59846;SDS011;45728;48.788;2.302;2023-04-12T08:04:27;3.60;;;1.17;;
59846;SDS011;45728;48.788;2.302;2023-04-12T08:06:54;3.65;;;1.27;;
59846;SDS011;45728;48.788;2.302;2023-04-12T08:09:20;3.03;;;1.17;;
59846;SDS011;45728;48.788;2.302;2023-04-12T08:11:46;3.80;;;1.10;;
59846;SDS011;45728;48.788;2.302;2023-04-12T08:14:12;3.08;;;1.27;;
59846;SDS011;45728;48.788;2.302;2023-04-12T08:16:38;4.35;;;1.20;;
59846;SDS011;45728;48.788;2.302;2023-04-12T08:19:04;2.92;;;1.13;;
59846;SDS011;45728;48.788;2.302;2023-04-12T08:21:31;3.70;;;1.10;;
59846;SDS011;45728;48.788;2.302;2023-04-12T08:23:58;2.67;;;1.40;;
59846;SDS011;45728;48.788;2.302;2023-04-12T08:26:24;3.55;;;0.85;;
59846;SDS011;45728;48.788;2.302;2023-04-12T08:28:54;3.30;;;1.08;;
59846;SDS011;45728;48.788;2.302;2023-04-12T08:31:22;1.98;;;0.90;;
59846;SDS011;45728;48.788;2.302;2023-04-12T08:33:48;3.15;;;0.85;;
59846;SDS011;45728;48.788;2.302;2023-04-12T08:36:14;4.03;;;0.85;;
59846;SDS011;45728;48.788;2.302;2023-04-12T08:38:41;1.80;;;0.80;;
59846;SDS011;45728;48.788;2.302;2023-04-12T08:41:07;1.95;;;0.70;;
59846;SDS011;45728;48.788;2.302;2023-04-12T08:43:33;2.67;;;1.08;;
59846;SDS011;45728;48.788;2.302;2023-04-12T08:46:01;1.30;;;0.60;;
59846;SDS011;45728;48.788;2.302;2023-04-12T08:48:27;2.65;;;0.90;;
59846;SDS011;45728;48.788;2.302;2023-04-12T08:50:55;3.00;;;0.80;;
59846;SDS011;45728;48.788;2.302;2023-04-12T08:53:22;2.83;;;0.90;;
59846;SDS011;45728;48.788;2.302;2023-04-12T08:55:48;4.57;;;1.00;;
59846;SDS011;45728;48.788;2.302;2023-04-12T08:58:14;3.05;;;0.90;;
59846;SDS011;45728;48.788;2.302;2023-04-12T09:00:41;3.90;;;0.80;;
59846;SDS011;45728;48.788;2.302;2023-04-12T09:03:07;3.13;;;1.08;;
59846;SDS011;45728;48.788;2.302;2023-04-12T09:05:35;1.85;;;0.80;;
59846;SDS011;45728;48.788;2.302;2023-04-12T09:08:01;2.33;;;0.82;;
59846;SDS011;45728;48.788;2.302;2023-04-12T09:10:35;3.03;;;0.90;;
59846;SDS011;45728;48.788;2.302;2023-04-12T09:13:03;2.35;;;0.90;;
59846;SDS011;45728;48.788;2.302;2023-04-12T09:15:30;2.05;;;0.75;;
59846;SDS011;45728;48.788;2.302;2023-04-12T09:18:04;3.40;;;1.02;;
59846;SDS011;45728;48.788;2.302;2023-04-12T09:20:35;3.13;;;1.13;;
59846;SDS011;45728;48.788;2.302;2023-04-12T09:26:00;6.07;;;1.27;;
59846;SDS011;45728;48.788;2.302;2023-04-12T09:28:27;2.97;;;0.98;;
59846;SDS011;45728;48.788;2.302;2023-04-12T09:30:56;2.08;;;1.00;;
59846;SDS011;45728;48.788;2.302;2023-04-12T09:33:31;3.50;;;1.10;;
59846;SDS011;45728;48.788;2.302;2023-04-12T09:36:05;2.47;;;0.87;;
59846;SDS011;45728;48.788;2.302;2023-04-12T09:38:38;1.92;;;0.75;;
59846;SDS011;45728;48.788;2.302;2023-04-12T09:41:16;3.25;;;1.10;;
59846;SDS011;45728;48.788;2.302;2023-04-12T09:43:44;1.00;;;0.57;;
59846;SDS011;45728;48.788;2.302;2023-04-12T09:46:10;2.63;;;0.77;;
59846;SDS011;45728;48.788;2.302;2023-04-12T09:48:38;3.10;;;0.85;;
59846;SDS011;45728;48.788;2.302;2023-04-12T09:51:07;1.45;;;0.80;;
59846;SDS011;45728;48.788;2.302;2023-04-12T09:53:34;1.95;;;0.90;;
59846;SDS011;45728;48.788;2.302;2023-04-12T09:56:05;2.70;;;1.40;;
59846;SDS011;45728;48.788;2.302;2023-04-12T09:58:34;2.67;;;0.90;;
59846;SDS011;45728;48.788;2.302;2023-04-12T10:01:01;2.33;;;1.55;;
59846;SDS011;45728;48.788;2.302;2023-04-12T10:03:29;4.22;;;0.82;;
59846;SDS011;45728;48.788;2.302;2023-04-12T10:05:55;2.22;;;0.73;;
59846;SDS011;45728;48.788;2.302;2023-04-12T10:08:22;3.00;;;1.08;;
59846;SDS011;45728;48.788;2.302;2023-04-12T10:10:48;2.25;;;0.90;;
59846;SDS011;45728;48.788;2.302;2023-04-12T10:13:16;4.05;;;1.02;;
59846;SDS011;45728;48.788;2.302;2023-04-12T10:15:44;3.10;;;1.20;;
59846;SDS011;45728;48.788;2.302;2023-04-12T10:18:13;2.53;;;1.00;;
59846;SDS011;45728;48.788;2.302;2023-04-12T10:20:42;2.83;;;1.20;;
59846;SDS011;45728;48.788;2.302;2023-04-12T10:23:10;5.15;;;1.35;;
59846;SDS011;45728;48.788;2.302;2023-04-12T10:25:37;4.80;;;1.17;;
59846;SDS011;45728;48.788;2.302;2023-04-12T10:28:14;3.35;;;1.20;;
59846;SDS011;45728;48.788;2.302;2023-04-12T10:30:41;3.13;;;1.13;;
59846;SDS011;45728;48.788;2.302;2023-04-12T10:38:27;4.18;;;1.40;;
59846;SDS011;45728;48.788;2.302;2023-04-12T10:43:42;3.00;;;1.40;;
59846;SDS011;45728;48.788;2.302;2023-04-12T10:49:11;5.70;;;2.28;;
59846;SDS011;45728;48.788;2.302;2023-04-12T10:56:51;7.95;;;1.70;;
59846;SDS011;45728;48.788;2.302;2023-04-12T10:59:17;7.53;;;2.95;;
59846;SDS011;45728;48.788;2.302;2023-04-12T11:04:31;5.07;;;1.77;;
59846;SDS011;45728;48.788;2.302;2023-04-12T11:06:58;7.53;;;1.63;;
59846;SDS011;45728;48.788;2.302;2023-04-12T11:09:36;6.47;;;1.73;;
59846;SDS011;45728;48.788;2.302;2023-04-12T11:14:42;4.97;;;1.75;;
59846;SDS011;45728;48.788;2.302;2023-04-12T11:22:07;6.00;;;1.35;;
59846;SDS011;45728;48.788;2.302;2023-04-12T11:24:38;4.03;;;1.13;;
59846;SDS011;45728;48.788;2.302;2023-04-12T11:27:12;7.68;;;1.38;;
59846;SDS011;45728;48.788;2.302;2023-04-12T11:29:40;6.45;;;1.80;;
59846;SDS011;45728;48.788;2.302;2023-04-12T11:32:11;5.70;;;1.70;;
59846;SDS011;45728;48.788;2.302;2023-04-12T11:34:38;4.43;;;1.20;;
59846;SDS011;45728;48.788;2.302;2023-04-12T11:37:06;4.07;;;1.52;;
59846;SDS011;45728;48.788;2.302;2023-04-12T11:39:34;4.05;;;1.15;;
59846;SDS011;45728;48.788;2.302;2023-04-12T11:42:03;5.97;;;2.00;;
59846;SDS011;45728;48.788;2.302;2023-04-12T11:44:31;3.97;;;1.00;;
59846;SDS011;45728;48.788;2.302;2023-04-12T11:46:58;5.13;;;1.70;;
59846;SDS011;45728;48.788;2.302;2023-04-12T11:49:25;3.90;;;1.10;;
59846;SDS011;45728;48.788;2.302;2023-04-12T11:52:01;3.45;;;1.50;;
59846;SDS011;45728;48.788;2.302;2023-04-12T11:54:31;4.72;;;1.45;;
59846;SDS011;45728;48.788;2.302;2023-04-12T11:56:59;4.32;;;1.67;;
59846;SDS011;45728;48.788;2.302;2023-04-12T11:59:34;5.05;;;1.48;;
59846;SDS011;45728;48.788;2.302;2023-04-12T12:02:00;3.58;;;1.20;;
59846;SDS011;45728;48.788;2.302;2023-04-12T12:04:27;4.35;;;1.25;;
59846;SDS011;45728;48.788;2.302;2023-04-12T12:06:54;3.70;;;1.38;;
59846;SDS011;45728;48.788;2.302;2023-04-12T12:09:22;4.80;;;1.30;;
59846;SDS011;45728;48.788;2.302;2023-04-12T12:11:49;3.38;;;1.30;;
59846;SDS011;45728;48.788;2.302;2023-04-12T12:14:19;3.05;;;1.10;;
59846;SDS011;45728;48.788;2.302;2023-04-12T12:16:56;3.47;;;1.20;;
59846;SDS011;45728;48.788;2.302;2023-04-12T12:19:27;2.50;;;1.02;;
59846;SDS011;45728;48.788;2.302;2023-04-12T12:22:05;6.32;;;1.33;;
59846;SDS011;45728;48.788;2.302;2023-04-12T12:24:31;1.08;;;0.77;;
59846;SDS011;45728;48.788;2.302;2023-04-12T12:27:00;3.22;;;1.10;;
59846;SDS011;45728;48.788;2.302;2023-04-12T12:31:59;2.63;;;0.90;;
59846;SDS011;45728;48.788;2.302;2023-04-12T12:34:30;3.83;;;1.10;;
59846;SDS011;45728;48.788;2.302;2023-04-12T12:36:58;2.83;;;0.80;;
59846;SDS011;45728;48.788;2.302;2023-04-12T12:39:24;2.45;;;0.85;;
59846;SDS011;45728;48.788;2.302;2023-04-12T12:41:53;1.95;;;0.98;;
59846;SDS011;45728;48.788;2.302;2023-04-12T12:44:23;6.25;;;1.00;;
59846;SDS011;45728;48.788;2.302;2023-04-12T12:46:50;4.28;;;1.48;;
59846;SDS011;45728;48.788;2.302;2023-04-12T12:49:16;2.17;;;0.93;;
59846;SDS011;45728;48.788;2.302;2023-04-12T12:51:43;2.53;;;0.73;;
59846;SDS011;45728;48.788;2.302;2023-04-12T12:54:09;2.78;;;1.00;;
59846;SDS011;45728;48.788;2.302;2023-04-12T12:56:35;1.67;;;1.00;;
59846;SDS011;45728;48.788;2.302;2023-04-12T12:59:01;3.63;;;1.00;;
59846;SDS011;45728;48.788;2.302;2023-04-12T13:01:27;2.95;;;0.93;;
59846;SDS011;45728;48.788;2.302;2023-04-12T13:03:53;1.92;;;0.57;;
59846;SDS011;45728;48.788;2.302;2023-04-12T13:06:20;1.83;;;1.00;;
59846;SDS011;45728;48.788;2.302;2023-04-12T13:08:46;3.47;;;1.10;;
59846;SDS011;45728;48.788;2.302;2023-04-12T13:11:12;3.45;;;1.45;;
59846;SDS011;45728;48.788;2.302;2023-04-12T13:13:38;2.38;;;0.98;;
59846;SDS011;45728;48.788;2.302;2023-04-12T13:16:04;4.10;;;1.15;;
59846;SDS011;45728;48.788;2.302;2023-04-12T13:18:31;2.85;;;1.02;;
59846;SDS011;45728;48.788;2.302;2023-04-12T13:20:57;2.40;;;0.80;;
59846;SDS011;45728;48.788;2.302;2023-04-12T13:23:23;3.45;;;1.05;;
59846;SDS011;45728;48.788;2.302;2023-04-12T13:25:49;2.35;;;1.10;;
59846;SDS011;45728;48.788;2.302;2023-04-12T13:28:15;4.32;;;1.10;;
59846;SDS011;45728;48.788;2.302;2023-04-12T13:30:41;2.20;;;1.00;;
59846;SDS011;45728;48.788;2.302;2023-04-12T13:33:08;4.63;;;1.05;;
59846;SDS011;45728;48.788;2.302;2023-04-12T13:35:34;4.10;;;1.10;;
59846;SDS011;45728;48.788;2.302;2023-04-12T13:38:00;2.67;;;1.30;;
59846;SDS011;45728;48.788;2.302;2023-04-12T13:40:26;3.20;;;1.00;;
59846;SDS011;45728;48.788;2.302;2023-04-12T13:42:52;4.80;;;0.85;;
59846;SDS011;45728;48.788;2.302;2023-04-12T13:45:18;2.65;;;0.90;;
59846;SDS011;45728;48.788;2.302;2023-04-12T13:47:44;2.53;;;0.80;;
59846;SDS011;45728;48.788;2.302;2023-04-12T13:50:10;2.53;;;0.93;;
59846;SDS011;45728;48.788;2.302;2023-04-12T13:52:37;1.30;;;0.77;;
59846;SDS011;45728;48.788;2.302;2023-04-12T13:55:04;2.55;;;0.90;;
59846;SDS011;45728;48.788;2.302;2023-04-12T13:57:32;4.55;;;1.20;;
59846;SDS011;45728;48.788;2.302;2023-04-12T13:59:59;1.20;;;0.60;;
59846;SDS011;45728;48.788;2.302;2023-04-12T14:02:26;3.08;;;0.95;;
59846;SDS011;45728;48.788;2.302;2023-04-12T14:04:52;3.08;;;0.80;;
59846;SDS011;45728;48.788;2.302;2023-04-12T14:07:19;1.50;;;0.70;;
59846;SDS011;45728;48.788;2.302;2023-04-12T14:09:46;3.72;;;0.90;;
59846;SDS011;45728;48.788;2.302;2023-04-12T14:12:13;7.35;;;1.00;;
59846;SDS011;45728;48.788;2.302;2023-04-12T14:14:39;2.33;;;0.90;;
59846;SDS011;45728;48.788;2.302;2023-04-12T14:17:05;1.05;;;0.50;;
59846;SDS011;45728;48.788;2.302;2023-04-12T14:19:31;2.03;;;0.60;;
59846;SDS011;45728;48.788;2.302;2023-04-12T14:21:57;2.28;;;0.50;;
59846;SDS011;45728;48.788;2.302;2023-04-12T14:24:23;2.63;;;0.77;;
59846;SDS011;45728;48.788;2.302;2023-04-12T14:26:50;2.63;;;1.10;;
59846;SDS011;45728;48.788;2.302;2023-04-12T14:29:17;2.40;;;0.85;;
59846;SDS011;45728;48.788;2.302;2023-04-12T14:31:43;1.67;;;0.88;;
59846;SDS011;45728;48.788;2.302;2023-04-12T14:34:10;2.17;;;0.98;;
59846;SDS011;45728;48.788;2.302;2023-04-12T14:36:37;2.10;;;0.80;;
59846;SDS011;45728;48.788;2.302;2023-04-12T14:39:03;1.08;;;0.80;;
59846;SDS011;45728;48.788;2.302;2023-04-12T14:41:30;2.70;;;1.08;;
59846;SDS011;45728;48.788;2.302;2023-04-12T14:43:59;1.95;;;0.95;;
59846;SDS011;45728;48.788;2.302;2023-04-12T14:46:25;1.73;;;0.80;;
59846;SDS011;45728;48.788;2.302;2023-04-12T14:48:53;1.40;;;0.90;;
59846;SDS011;45728;48.788;2.302;2023-04-12T14:51:19;2.90;;;0.93;;
59846;SDS011;45728;48.788;2.302;2023-04-12T14:53:45;4.45;;;0.95;;
59846;SDS011;45728;48.788;2.302;2023-04-12T14:56:18;5.15;;;0.90;;
59846;SDS011;45728;48.788;2.302;2023-04-12T14:58:45;1.38;;;0.43;;
59846;SDS011;45728;48.788;2.302;2023-04-12T15:01:12;1.00;;;0.40;;
59846;SDS011;45728;48.788;2.302;2023-04-12T15:03:38;2.08;;;0.50;;
59846;SDS011;45728;48.788;2.302;2023-04-12T15:06:07;1.80;;;0.50;;
59846;SDS011;45728;48.788;2.302;2023-04-12T15:08:33;2.70;;;1.00;;
59846;SDS011;45728;48.788;2.302;2023-04-12T15:11:09;2.95;;;0.80;;
59846;SDS011;45728;48.788;2.302;2023-04-12T15:13:37;1.98;;;0.70;;
59846;SDS011;45728;48.788;2.302;2023-04-12T15:16:07;3.38;;;0.90;;
59846;SDS011;45728;48.788;2.302;2023-04-12T15:18:37;2.67;;;1.58;;
59846;SDS011;45728;48.788;2.302;2023-04-12T15:21:08;3.42;;;1.63;;
59846;SDS011;45728;48.788;2.302;2023-04-12T15:23:36;2.55;;;0.73;;
59846;SDS011;45728;48.788;2.302;2023-04-12T15:26:04;2.30;;;0.73;;
59846;SDS011;45728;48.788;2.302;2023-04-12T15:28:31;3.30;;;0.88;;
59846;SDS011;45728;48.788;2.302;2023-04-12T15:30:58;6.00;;;1.10;;
59846;SDS011;45728;48.788;2.302;2023-04-12T15:33:24;3.10;;;0.98;;